Time;durP1;ratioP1;P1;durP2;ratioP2;P2;SDS_P1;SDS_P2;PMS_P1;PMS_P2;Temp;Humidity;BMP_temperature;BMP_pressure;BME280_temperature;BME280_humidity;BME280_pressure;Samples;Min_cycle;Max_cycle;Signal;HPM_P1;HPM_P2
2023/06/11 00:01:27;;;;;;;;;;;;;;;;;;5048540;28;20000;-60
2023/06/11 00:03:52;;;;;;;;;;;;;;;;;;5052327;28;19913;-61
2023/06/11 00:06:20;;;;;;;;;;;;;;;;;;5055684;28;19935;-60
2023/06/11 00:08:46;;;;;;;;;;;;;;;;;;5065492;28;19920;-61
2023/06/11 00:11:12;;;;;;;;;;;;;;;;;;5062334;28;19949;-60
2023/06/11 00:13:38;;;;;;;;;;;;;;;;;;5056088;28;19994;-60
2023/06/11 00:16:04;;;;;;;;;;;;;;;;;;5070881;28;19940;-60
2023/06/11 00:18:30;;;;;;;;;;;;;;;;;;5088086;28;19934;-60
2023/06/11 00:20:58;;;;;;;;;;;;;;;;;;5087731;28;19912;-60
2023/06/11 00:23:24;;;;;;;;;;;;;;;;;;5088843;28;20538;-60
2023/06/11 00:25:52;;;;;;;;;;;;;;;;;;5088559;28;19917;-60
2023/06/11 00:28:18;;;;;;;;;;;;;;;;;;5069670;28;19913;-60
2023/06/11 00:30:44;;;;;;;;;;;;;;;;;;5054677;28;19978;-60
2023/06/11 00:33:09;;;;;;;;;;;;;;;;;;5072500;28;20261;-60
2023/06/11 00:35:35;;;;;;;;;;;;;;;;;;5074881;28;19924;-60
2023/06/11 00:38:02;;;;;;;;;;;;;;;;;;5074926;28;19908;-60
2023/06/11 00:40:28;;;;;;;;;;;;;;;;;;5074568;28;19999;-60
2023/06/11 00:42:54;;;;;;;;;;;;;;;;;;5072658;28;20011;-60
2023/06/11 00:45:22;;;;;;;;;;;;;;;;;;5073719;28;19964;-60
2023/06/11 00:47:48;;;;;;;;;;;;;;;;;;5073231;28;19916;-61
2023/06/11 00:50:15;;;;;;;;;;;;;;;;;;5073319;28;20427;-61
2023/06/11 00:52:41;;;;;;;;;;;;;;;;;;5074520;28;19916;-60
2023/06/11 00:55:07;;;;;;;;;;;;;;;;;;5074458;28;19929;-60
2023/06/11 00:57:35;;;;;;;;;;;;;;;;;;5073502;28;19924;-60
2023/06/11 01:00:01;;;;;;;;;;;;;;;;;;5069043;28;19973;-60
2023/06/11 01:02:27;;;;;;;;;;;;;;;;;;5073621;28;19920;-61
2023/06/11 01:04:57;;;;;;;;;;;;;;;;;;5072273;28;20010;-60
2023/06/11 01:07:23;;;;;;;;;;;;;;;;;;5071712;28;19920;-60
2023/06/11 01:09:48;;;;;;;;;;;;;;;;;;5060967;28;19916;-66
2023/06/11 01:12:14;;;;;;;;;;;;;;;;;;5060768;28;19916;-66
2023/06/11 01:14:42;;;;;;;;;;;;;;;;;;5074271;28;19954;-66
2023/06/11 01:17:08;;;;;;;;;;;;;;;;;;5073030;28;20327;-67
2023/06/11 01:19:37;;;;;;;;;;;;;;;;;;5070197;28;19959;-67
2023/06/11 01:22:03;;;;;;;;;;;;;;;;;;5049409;28;20000;-66
2023/06/11 01:24:29;;;;;;;;;;;;;;;;;;5068134;28;19912;-66
2023/06/11 01:26:55;;;;;;;;;;;;;;;;;;5070431;28;19967;-66
2023/06/11 01:29:21;;;;;;;;;;;;;;;;;;5073085;28;19931;-66
2023/06/11 01:31:47;;;;;;;;;;;;;;;;;;5068186;28;20338;-66
2023/06/11 01:34:13;;;;;;;;;;;;;;;;;;5058740;28;20396;-66
2023/06/11 01:36:39;;;;;;;;;;;;;;;;;;5073653;28;20014;-66
2023/06/11 01:39:05;;;;;;;;;;;;;;;;;;5072749;28;20348;-66
2023/06/11 01:41:31;;;;;;;;;;;;;;;;;;5071663;28;19920;-67
2023/06/11 01:43:57;;;;;;;;;;;;;;;;;;5068667;28;19912;-66
2023/06/11 01:46:23;;;;;;;;;;;;;;;;;;5066096;28;20284;-66
2023/06/11 01:48:49;;;;;;;;;;;;;;;;;;5072417;28;19954;-65
2023/06/11 01:51:14;;;;;;;;;;;;;;;;;;5073372;28;19931;-66
2023/06/11 01:53:40;;;;;;;;;;;;;;;;;;5073235;28;19915;-66
2023/06/11 01:56:06;;;;;;;;;;;;;;;;;;5070220;28;20422;-66
2023/06/11 01:58:33;;;;;;;;;;;;;;;;;;5066375;28;20113;-65
2023/06/11 02:00:59;;;;;;;;;;;;;;;;;;5062095;28;19920;-67
2023/06/11 02:03:25;;;;;;;;;;;;;;;;;;5072419;28;20410;-66
2023/06/11 02:05:51;;;;;;;;;;;;;;;;;;5073160;28;19908;-66
2023/06/11 02:08:17;;;;;;;;;;;;;;;;;;5072946;28;19917;-66
2023/06/11 02:10:43;;;;;;;;;;;;;;;;;;5072882;28;19958;-66
2023/06/11 02:13:09;;;;;;;;;;;;;;;;;;5072882;28;20015;-65
2023/06/11 02:15:35;;;;;;;;;;;;;;;;;;5070715;28;20387;-65
2023/06/11 02:18:01;;;;;;;;;;;;;;;;;;5073095;28;19999;-65
2023/06/11 02:20:27;;;;;;;;;;;;;;;;;;5072727;28;19908;-66
2023/06/11 02:22:53;;;;;;;;;;;;;;;;;;5071856;28;20292;-66
2023/06/11 02:25:19;;;;;;;;;;;;;;;;;;5072519;28;19912;-66
2023/06/11 02:27:44;;;;;;;;;;;;;;;;;;5072470;28;19947;-66
2023/06/11 02:30:10;;;;;;;;;;;;;;;;;;5071049;28;19948;-66
2023/06/11 02:32:36;;;;;;;;;;;;;;;;;;5071271;28;19923;-66
2023/06/11 02:35:02;;;;;;;;;;;;;;;;;;5072658;28;19959;-66
2023/06/11 02:37:28;;;;;;;;;;;;;;;;;;5072502;28;20388;-67
2023/06/11 02:39:54;;;;;;;;;;;;;;;;;;5072537;28;20007;-66
2023/06/11 02:42:20;;;;;;;;;;;;;;;;;;5072433;28;20054;-65
2023/06/11 02:44:46;;;;;;;;;;;;;;;;;;5070854;28;20007;-65
2023/06/11 02:47:12;;;;;;;;;;;;;;;;;;5064255;28;19919;-66
2023/06/11 02:49:38;;;;;;;;;;;;;;;;;;5058071;28;19959;-66
2023/06/11 02:52:04;;;;;;;;;;;;;;;;;;5070955;28;19908;-66
2023/06/11 02:54:30;;;;;;;;;;;;;;;;;;5071450;28;20056;-66
2023/06/11 02:56:56;;;;;;;;;;;;;;;;;;5071650;28;19916;-66
2023/06/11 02:59:22;;;;;;;;;;;;;;;;;;5070817;28;19959;-67
2023/06/11 03:01:48;;;;;;;;;;;;;;;;;;5070577;28;19913;-66
2023/06/11 03:04:14;;;;;;;;;;;;;;;;;;5060311;28;19912;-66
2023/06/11 03:06:40;;;;;;;;;;;;;;;;;;5069163;28;19912;-66
2023/06/11 03:09:06;;;;;;;;;;;;;;;;;;5071780;28;19916;-66
2023/06/11 03:11:32;;;;;;;;;;;;;;;;;;5070443;28;20339;-67
2023/06/11 03:13:58;;;;;;;;;;;;;;;;;;5071185;28;19989;-65
2023/06/11 03:16:23;;;;;;;;;;;;;;;;;;5070790;28;19920;-65
2023/06/11 03:18:49;;;;;;;;;;;;;;;;;;5069650;28;19963;-67
2023/06/11 03:21:15;;;;;;;;;;;;;;;;;;5070698;28;20384;-66
2023/06/11 03:23:41;;;;;;;;;;;;;;;;;;5054543;28;19915;-66
2023/06/11 03:26:07;;;;;;;;;;;;;;;;;;5067602;28;19912;-66
2023/06/11 03:28:33;;;;;;;;;;;;;;;;;;5057140;28;19919;-66
2023/06/11 03:30:59;;;;;;;;;;;;;;;;;;5064713;28;19974;-66
2023/06/11 03:33:25;;;;;;;;;;;;;;;;;;5071334;28;20020;-66
2023/06/11 03:35:51;;;;;;;;;;;;;;;;;;5069871;28;20655;-66
2023/06/11 03:38:17;;;;;;;;;;;;;;;;;;5070972;28;19985;-65
2023/06/11 03:40:43;;;;;;;;;;;;;;;;;;5070896;28;19909;-66
2023/06/11 03:43:09;;;;;;;;;;;;;;;;;;5071046;28;19919;-65
2023/06/11 03:45:34;;;;;;;;;;;;;;;;;;5054957;28;19917;-66
2023/06/11 03:48:02;;;;;;;;;;;;;;;;;;5070636;28;19947;-66
2023/06/11 03:50:28;;;;;;;;;;;;;;;;;;5070663;28;19916;-65
2023/06/11 03:52:54;;;;;;;;;;;;;;;;;;5069928;28;19959;-66
2023/06/11 03:55:20;;;;;;;;;;;;;;;;;;5071108;28;19912;-65
2023/06/11 03:57:46;;;;;;;;;;;;;;;;;;5070792;28;19912;-66
2023/06/11 04:00:12;;;;;;;;;;;;;;;;;;5068708;28;19978;-66
2023/06/11 04:02:38;;;;;;;;;;;;;;;;;;5065197;28;19975;-66
2023/06/11 04:05:04;;;;;;;;;;;;;;;;;;5065487;28;19926;-66
2023/06/11 04:07:30;;;;;;;;;;;;;;;;;;5038489;28;20327;-65
2023/06/11 04:09:56;;;;;;;;;;;;;;;;;;5044120;28;20061;-66
2023/06/11 04:12:22;;;;;;;;;;;;;;;;;;5069781;28;19962;-66
2023/06/11 04:14:48;;;;;;;;;;;;;;;;;;5069999;28;19999;-66
2023/06/11 04:17:13;;;;;;;;;;;;;;;;;;5074063;28;19971;-66
2023/06/11 04:19:39;;;;;;;;;;;;;;;;;;5070864;28;19992;-66
2023/06/11 04:22:05;;;;;;;;;;;;;;;;;;5054703;28;19919;-66
2023/06/11 04:24:31;;;;;;;;;;;;;;;;;;5056343;28;19916;-66
2023/06/11 04:26:58;;;;;;;;;;;;;;;;;;5062011;28;20411;-66
2023/06/11 04:29:29;;;;;;;;;;;;;;;;;;5058385;28;19920;-66
2023/06/11 04:31:55;;;;;;;;;;;;;;;;;;5071622;28;20414;-66
2023/06/11 04:34:20;;;;;;;;;;;;;;;;;;5061649;28;19916;-66
2023/06/11 04:36:47;;;;;;;;;;;;;;;;;;5062401;28;20027;-66
2023/06/11 04:39:13;;;;;;;;;;;;;;;;;;5060294;28;19908;-66
2023/06/11 04:41:39;;;;;;;;;;;;;;;;;;5071640;28;19952;-66
2023/06/11 04:44:05;;;;;;;;;;;;;;;;;;5072517;28;19962;-66
2023/06/11 04:46:34;;;;;;;;;;;;;;;;;;5072545;28;19963;-67
2023/06/11 04:49:00;;;;;;;;;;;;;;;;;;5069037;28;19913;-66
2023/06/11 04:51:28;;;;;;;;;;;;;;;;;;5054275;28;19999;-66
2023/06/11 04:53:57;;;;;;;;;;;;;;;;;;5065007;28;19955;-67
2023/06/11 04:56:23;;;;;;;;;;;;;;;;;;5065687;28;19998;-66
2023/06/11 04:58:49;;;;;;;;;;;;;;;;;;5070022;28;20454;-66
2023/06/11 05:01:15;;;;;;;;;;;;;;;;;;5043680;28;20312;-67
2023/06/11 05:03:41;;;;;;;;;;;;;;;;;;5073361;28;19955;-66
2023/06/11 05:06:08;;;;;;;;;;;;;;;;;;5073618;28;19997;-67
2023/06/11 05:08:34;;;;;;;;;;;;;;;;;;5071934;28;19913;-66
2023/06/11 05:11:00;;;;;;;;;;;;;;;;;;5072146;28;20276;-66
2023/06/11 05:13:26;;;;;;;;;;;;;;;;;;5070847;28;19922;-67
2023/06/11 05:15:52;;;;;;;;;;;;;;;;;;5070004;28;19966;-66
2023/06/11 05:18:18;;;;;;;;;;;;;;;;;;5060914;28;19908;-66
2023/06/11 05:20:44;;;;;;;;;;;;;;;;;;5072024;28;20415;-66
2023/06/11 05:23:10;;;;;;;;;;;;;;;;;;5057731;28;20015;-66
2023/06/11 05:25:36;;;;;;;;;;;;;;;;;;5063896;28;20004;-66
2023/06/11 05:28:01;;;;;;;;;;;;;;;;;;5067714;28;20315;-66
2023/06/11 05:30:29;;;;;;;;;;;;;;;;;;5063220;28;20041;-66
2023/06/11 05:32:55;;;;;;;;;;;;;;;;;;5068869;28;19939;-66
2023/06/11 05:35:21;;;;;;;;;;;;;;;;;;5059453;28;19920;-66
2023/06/11 05:37:47;;;;;;;;;;;;;;;;;;5055882;28;19909;-66
2023/06/11 05:40:13;;;;;;;;;;;;;;;;;;5071377;28;20028;-66
2023/06/11 05:42:38;;;;;;;;;;;;;;;;;;5063091;28;19952;-65
2023/06/11 05:45:04;;;;;;;;;;;;;;;;;;5055573;28;19913;-65
2023/06/11 05:47:30;;;;;;;;;;;;;;;;;;5068770;28;19952;-66
2023/06/11 05:49:56;;;;;;;;;;;;;;;;;;5067351;28;20441;-66
2023/06/11 05:52:22;;;;;;;;;;;;;;;;;;5062899;28;19909;-65
2023/06/11 05:54:48;;;;;;;;;;;;;;;;;;5057471;28;19913;-65
2023/06/11 05:57:14;;;;;;;;;;;;;;;;;;5064119;28;19967;-66
2023/06/11 05:59:40;;;;;;;;;;;;;;;;;;5060518;28;19923;-66
2023/06/11 06:02:06;;;;;;;;;;;;;;;;;;5069084;28;19959;-65
2023/06/11 06:04:32;;;;;;;;;;;;;;;;;;5052604;28;20396;-66
2023/06/11 06:06:58;;;;;;;;;;;;;;;;;;5063434;28;19951;-66
2023/06/11 06:09:24;;;;;;;;;;;;;;;;;;5052493;28;19909;-65
2023/06/11 06:11:50;;;;;;;;;;;;;;;;;;5059632;28;19912;-65
2023/06/11 06:14:16;;;;;;;;;;;;;;;;;;5072231;28;19981;-65
2023/06/11 06:16:42;;;;;;;;;;;;;;;;;;5071124;28;20337;-66
2023/06/11 06:19:08;;;;;;;;;;;;;;;;;;5072175;28;20003;-65
2023/06/11 06:21:34;;;;;;;;;;;;;;;;;;5071818;28;19909;-66
2023/06/11 06:24:00;;;;;;;;;;;;;;;;;;5058120;28;19959;-65
2023/06/11 06:26:26;;;;;;;;;;;;;;;;;;5054136;28;19952;-65
2023/06/11 06:28:53;;;;;;;;;;;;;;;;;;5070436;28;20457;-65
2023/06/11 06:31:20;;;;;;;;;;;;;;;;;;5069339;28;20369;-65
2023/06/11 06:33:46;;;;;;;;;;;;;;;;;;5065752;28;19923;-65
2023/06/11 06:36:12;;;;;;;;;;;;;;;;;;5063690;28;20454;-66
2023/06/11 06:38:38;;;;;;;;;;;;;;;;;;5071202;28;19956;-65
2023/06/11 06:41:04;;;;;;;;;;;;;;;;;;5067594;28;19909;-65
2023/06/11 06:43:30;;;;;;;;;;;;;;;;;;5071462;28;20354;-65
2023/06/11 06:45:56;;;;;;;;;;;;;;;;;;5070782;28;20063;-65
2023/06/11 06:48:22;;;;;;;;;;;;;;;;;;5071336;28;19944;-65
2023/06/11 06:50:48;;;;;;;;;;;;;;;;;;5056752;28;19986;-65
2023/06/11 06:53:16;;;;;;;;;;;;;;;;;;5065299;28;19913;-65
2023/06/11 06:55:44;;;;;;;;;;;;;;;;;;5066763;28;19962;-66
2023/06/11 06:58:10;;;;;;;;;;;;;;;;;;5055089;28;19912;-66
2023/06/11 07:00:35;;;;;;;;;;;;;;;;;;5065472;28;19917;-66
2023/06/11 07:03:01;;;;;;;;;;;;;;;;;;5067701;28;20411;-66
2023/06/11 07:05:27;;;;;;;;;;;;;;;;;;5070626;28;19948;-66
2023/06/11 07:07:53;;;;;;;;;;;;;;;;;;5068295;28;20006;-66
2023/06/11 07:10:19;;;;;;;;;;;;;;;;;;5053247;28;19909;-66
2023/06/11 07:12:45;;;;;;;;;;;;;;;;;;5057716;28;19927;-67
2023/06/11 07:15:11;;;;;;;;;;;;;;;;;;5069380;28;19919;-66
2023/06/11 07:17:37;;;;;;;;;;;;;;;;;;5050460;28;19927;-66
2023/06/11 07:20:04;;;;;;;;;;;;;;;;;;5064382;28;20372;-66
2023/06/11 07:22:30;;;;;;;;;;;;;;;;;;5058654;28;19920;-67
2023/06/11 07:24:58;;;;;;;;;;;;;;;;;;5051720;28;19919;-67
2023/06/11 07:27:24;;;;;;;;;;;;;;;;;;5058135;28;20384;-66
2023/06/11 07:29:49;;;;;;;;;;;;;;;;;;5062697;28;19912;-67
2023/06/11 07:32:15;;;;;;;;;;;;;;;;;;5067820;28;20007;-66
2023/06/11 07:34:42;;;;;;;;;;;;;;;;;;5062360;28;20547;-67
2023/06/11 07:37:08;;;;;;;;;;;;;;;;;;5064578;28;20330;-66
2023/06/11 07:39:34;;;;;;;;;;;;;;;;;;5060694;28;19917;-66
2023/06/11 07:42:00;;;;;;;;;;;;;;;;;;5055648;28;19912;-66
2023/06/11 07:44:26;;;;;;;;;;;;;;;;;;5056961;28;19919;-66
2023/06/11 07:46:52;;;;;;;;;;;;;;;;;;5071748;28;19917;-66
2023/06/11 07:49:18;;;;;;;;;;;;;;;;;;5066665;28;19952;-67
2023/06/11 07:51:46;;;;;;;;;;;;;;;;;;5072607;28;20399;-68
2023/06/11 07:54:11;;;;;;;;;;;;;;;;;;5063010;28;20860;-66
2023/06/11 07:56:37;;;;;;;;;;;;;;;;;;5062826;28;19912;-66
2023/06/11 07:59:03;;;;;;;;;;;;;;;;;;5068338;28;19948;-66
2023/06/11 08:01:29;;;;;;;;;;;;;;;;;;5071389;28;19915;-66
2023/06/11 08:03:55;;;;;;;;;;;;;;;;;;5072409;28;20472;-66
2023/06/11 08:06:21;;;;;;;;;;;;;;;;;;5071937;28;19908;-66
2023/06/11 08:08:50;;;;;;;;;;;;;;;;;;5070404;28;20013;-66
2023/06/11 08:11:16;;;;;;;;;;;;;;;;;;5064207;28;20922;-66
2023/06/11 08:13:42;;;;;;;;;;;;;;;;;;5071145;28;19920;-66
2023/06/11 08:16:08;;;;;;;;;;;;;;;;;;5068746;28;20011;-67
2023/06/11 08:18:34;;;;;;;;;;;;;;;;;;5046685;28;20797;-66
2023/06/11 08:21:00;;;;;;;;;;;;;;;;;;5058530;28;19979;-67
2023/06/11 08:23:26;;;;;;;;;;;;;;;;;;5073752;28;19920;-67
2023/06/11 08:25:54;;;;;;;;;;;;;;;;;;5046291;28;20663;-66
2023/06/11 08:28:20;;;;;;;;;;;;;;;;;;5067100;28;20380;-67
2023/06/11 08:30:46;;;;;;;;;;;;;;;;;;5073348;28;19939;-67
2023/06/11 08:33:12;;;;;;;;;;;;;;;;;;5073645;28;20412;-67
2023/06/11 08:35:38;;;;;;;;;;;;;;;;;;5075089;28;19964;-66
2023/06/11 08:38:04;;;;;;;;;;;;;;;;;;5072162;28;19955;-67
2023/06/11 08:40:30;;;;;;;;;;;;;;;;;;5064593;28;20392;-66
2023/06/11 08:42:56;;;;;;;;;;;;;;;;;;5068714;28;19982;-67
2023/06/11 08:45:22;;;;;;;;;;;;;;;;;;5070011;28;19951;-66
2023/06/11 08:47:48;;;;;;;;;;;;;;;;;;5071382;28;19926;-67
2023/06/11 08:50:16;;;;;;;;;;;;;;;;;;5078108;28;19912;-67
2023/06/11 08:52:42;;;;;;;;;;;;;;;;;;5067266;28;19917;-67
2023/06/11 08:55:07;;;;;;;;;;;;;;;;;;5066498;28;19963;-67
2023/06/11 08:57:33;;;;;;;;;;;;;;;;;;5058079;28;20410;-67
2023/06/11 08:59:59;;;;;;;;;;;;;;;;;;5061190;28;20407;-66
2023/06/11 09:02:25;;;;;;;;;;;;;;;;;;5042685;28;20023;-67
2023/06/11 09:04:51;;;;;;;;;;;;;;;;;;5069437;28;20261;-66
2023/06/11 09:07:17;;;;;;;;;;;;;;;;;;5069517;28;19951;-66
2023/06/11 09:09:43;;;;;;;;;;;;;;;;;;5058007;28;19999;-66
2023/06/11 09:12:10;;;;;;;;;;;;;;;;;;5059976;28;20391;-66
2023/06/11 09:14:36;;;;;;;;;;;;;;;;;;5062895;28;19924;-66
2023/06/11 09:17:02;;;;;;;;;;;;;;;;;;5071790;28;19964;-66
2023/06/11 09:19:28;;;;;;;;;;;;;;;;;;5073091;28;20382;-67
2023/06/11 09:21:54;;;;;;;;;;;;;;;;;;5072688;28;19917;-66
2023/06/11 09:24:20;;;;;;;;;;;;;;;;;;5072475;28;19916;-66
2023/06/11 09:26:46;;;;;;;;;;;;;;;;;;5062586;28;19916;-66
2023/06/11 09:29:12;;;;;;;;;;;;;;;;;;5064971;28;19916;-66
2023/06/11 09:31:39;;;;;;;;;;;;;;;;;;5068937;28;20393;-66
2023/06/11 09:34:09;;;;;;;;;;;;;;;;;;5060509;28;19916;-66
2023/06/11 09:36:35;;;;;;;;;;;;;;;;;;5067570;28;19986;-66
2023/06/11 09:39:01;;;;;;;;;;;;;;;;;;5072054;28;20011;-66
2023/06/11 09:41:28;;;;;;;;;;;;;;;;;;5069210;28;20055;-66
2023/06/11 09:43:54;;;;;;;;;;;;;;;;;;5053265;28;20015;-66
2023/06/11 09:46:20;;;;;;;;;;;;;;;;;;5062145;28;20292;-66
2023/06/11 09:48:46;;;;;;;;;;;;;;;;;;5063243;28;20063;-66
2023/06/11 09:51:12;;;;;;;;;;;;;;;;;;5064842;28;19952;-67
2023/06/11 09:53:38;;;;;;;;;;;;;;;;;;5065833;28;25028;-66
2023/06/11 09:56:04;;;;;;;;;;;;;;;;;;5071116;28;19926;-67
2023/06/11 09:58:30;;;;;;;;;;;;;;;;;;5069696;28;20003;-66
2023/06/11 10:01:00;;;;;;;;;;;;;;;;;;5057903;28;20012;-66
2023/06/11 10:03:26;;;;;;;;;;;;;;;;;;5065179;28;19921;-66
2023/06/11 10:05:52;;;;;;;;;;;;;;;;;;5070616;28;19913;-66
2023/06/11 10:08:18;;;;;;;;;;;;;;;;;;5064019;28;20300;-66
2023/06/11 10:10:44;;;;;;;;;;;;;;;;;;5062956;28;20021;-67
2023/06/11 10:13:10;;;;;;;;;;;;;;;;;;5045868;28;20007;-67
2023/06/11 10:15:36;;;;;;;;;;;;;;;;;;5069169;28;19999;-66
2023/06/11 10:18:02;;;;;;;;;;;;;;;;;;5065940;28;19954;-66
2023/06/11 10:20:28;;;;;;;;;;;;;;;;;;5055364;28;19921;-66
2023/06/11 10:22:53;;;;;;;;;;;;;;;;;;5066797;28;20388;-67
2023/06/11 10:25:19;;;;;;;;;;;;;;;;;;5061193;28;19919;-67
2023/06/11 10:27:45;;;;;;;;;;;;;;;;;;5067985;28;19934;-67
2023/06/11 10:30:11;;;;;;;;;;;;;;;;;;5066509;28;19916;-67
2023/06/11 10:32:37;;;;;;;;;;;;;;;;;;5068295;28;19917;-68
2023/06/11 10:35:04;;;;;;;;;;;;;;;;;;5067680;28;19912;-67
2023/06/11 10:37:31;;;;;;;;;;;;;;;;;;5064061;28;19920;-67
2023/06/11 10:39:57;;;;;;;;;;;;;;;;;;5050683;28;20570;-66
2023/06/11 10:42:23;;;;;;;;;;;;;;;;;;5062987;28;20415;-66
2023/06/11 10:44:49;;;;;;;;;;;;;;;;;;5058241;28;19939;-67
2023/06/11 10:47:15;;;;;;;;;;;;;;;;;;5068958;28;19999;-67
2023/06/11 10:49:41;;;;;;;;;;;;;;;;;;5067842;28;20004;-66
2023/06/11 10:52:07;;;;;;;;;;;;;;;;;;5063692;28;20322;-66
2023/06/11 10:54:33;;;;;;;;;;;;;;;;;;5062265;28;19913;-67
2023/06/11 10:56:59;;;;;;;;;;;;;;;;;;5056938;28;19916;-67
2023/06/11 10:59:25;;;;;;;;;;;;;;;;;;5056684;28;19917;-67
2023/06/11 11:01:51;;;;;;;;;;;;;;;;;;5058074;28;20003;-66
2023/06/11 11:04:17;;;;;;;;;;;;;;;;;;5057745;28;20003;-66
2023/06/11 11:06:43;;;;;;;;;;;;;;;;;;5062669;28;20007;-65
2023/06/11 11:09:09;;;;;;;;;;;;;;;;;;5066641;28;20355;-66
2023/06/11 11:11:35;;;;;;;;;;;;;;;;;;5068176;28;19924;-65
2023/06/11 11:14:03;;;;;;;;;;;;;;;;;;5068374;28;20326;-65
2023/06/11 11:16:29;;;;;;;;;;;;;;;;;;5062617;28;19924;-64
2023/06/11 11:18:55;;;;;;;;;;;;;;;;;;5055777;28;19966;-65
2023/06/11 11:21:21;;;;;;;;;;;;;;;;;;5060090;28;19913;-65
2023/06/11 11:23:48;;;;;;;;;;;;;;;;;;5063341;28;20634;-66
2023/06/11 11:26:14;;;;;;;;;;;;;;;;;;5068793;28;19912;-66
2023/06/11 11:28:40;;;;;;;;;;;;;;;;;;5064250;28;19963;-66
2023/06/11 11:31:06;;;;;;;;;;;;;;;;;;5065039;28;19917;-61
2023/06/11 11:33:32;;;;;;;;;;;;;;;;;;5061321;28;20103;-61
2023/06/11 11:35:57;;;;;;;;;;;;;;;;;;5063247;28;20334;-62
2023/06/11 11:38:23;;;;;;;;;;;;;;;;;;5058571;28;19916;-62
2023/06/11 11:40:49;;;;;;;;;;;;;;;;;;5060920;28;19920;-61
2023/06/11 11:43:15;;;;;;;;;;;;;;;;;;5064977;28;19936;-62
2023/06/11 11:45:41;;;;;;;;;;;;;;;;;;5062223;28;19919;-60
2023/06/11 11:48:07;;;;;;;;;;;;;;;;;;5060273;28;20369;-61
2023/06/11 11:50:33;;;;;;;;;;;;;;;;;;5067384;28;19997;-61
2023/06/11 11:53:03;;;;;;;;;;;;;;;;;;5065058;28;20046;-62
2023/06/11 11:55:29;;;;;;;;;;;;;;;;;;5058506;28;20334;-61
2023/06/11 11:57:55;;;;;;;;;;;;;;;;;;5067599;28;19970;-61
2023/06/11 12:00:21;;;;;;;;;;;;;;;;;;5065040;28;19966;-61
2023/06/11 12:02:48;;;;;;;;;;;;;;;;;;5056380;28;19917;-61
2023/06/11 12:05:14;;;;;;;;;;;;;;;;;;5056783;28;19919;-62
2023/06/11 12:07:40;;;;;;;;;;;;;;;;;;5064031;28;20019;-62
2023/06/11 12:10:06;;;;;;;;;;;;;;;;;;5061055;28;20007;-62
2023/06/11 12:12:32;;;;;;;;;;;;;;;;;;5058411;28;19954;-62
2023/06/11 12:14:58;;;;;;;;;;;;;;;;;;5063066;28;19918;-62
2023/06/11 12:17:24;;;;;;;;;;;;;;;;;;5063945;28;19923;-60
2023/06/11 12:19:50;;;;;;;;;;;;;;;;;;5068063;28;19919;-62
2023/06/11 12:22:16;;;;;;;;;;;;;;;;;;5067787;28;19912;-61
2023/06/11 12:24:42;;;;;;;;;;;;;;;;;;5072102;28;19919;-61
2023/06/11 12:27:08;;;;;;;;;;;;;;;;;;5069243;28;20380;-63
2023/06/11 12:29:34;;;;;;;;;;;;;;;;;;5068523;28;19920;-62
2023/06/11 12:32:01;;;;;;;;;;;;;;;;;;5073410;28;20327;-61
2023/06/11 12:34:26;;;;;;;;;;;;;;;;;;5073997;28;19912;-62
2023/06/11 12:36:52;;;;;;;;;;;;;;;;;;5072711;28;19963;-62
2023/06/11 12:39:18;;;;;;;;;;;;;;;;;;5068414;28;20110;-61
2023/06/11 12:41:46;;;;;;;;;;;;;;;;;;5074369;28;19923;-62
2023/06/11 12:44:12;;;;;;;;;;;;;;;;;;5069781;28;19974;-61
2023/06/11 12:46:38;;;;;;;;;;;;;;;;;;5074102;28;19957;-61
2023/06/11 12:49:04;;;;;;;;;;;;;;;;;;5068321;28;19992;-61
2023/06/11 12:51:30;;;;;;;;;;;;;;;;;;5075300;28;19912;-62
2023/06/11 12:53:56;;;;;;;;;;;;;;;;;;5071472;28;19962;-62
2023/06/11 12:56:25;;;;;;;;;;;;;;;;;;5066092;28;20013;-62
2023/06/11 12:58:51;;;;;;;;;;;;;;;;;;5058073;28;19913;-62
2023/06/11 13:01:17;;;;;;;;;;;;;;;;;;5058744;28;19922;-62
2023/06/11 13:03:43;;;;;;;;;;;;;;;;;;5063593;28;19928;-62
2023/06/11 13:06:09;;;;;;;;;;;;;;;;;;5063158;28;20343;-62
2023/06/11 13:08:35;;;;;;;;;;;;;;;;;;5067194;28;19944;-62
2023/06/11 13:11:01;;;;;;;;;;;;;;;;;;5066050;28;19940;-62
2023/06/11 13:13:27;;;;;;;;;;;;;;;;;;5067773;28;20009;-62
2023/06/11 13:15:53;;;;;;;;;;;;;;;;;;5066316;28;19960;-62
2023/06/11 13:18:19;;;;;;;;;;;;;;;;;;5058967;28;20296;-62
2023/06/11 13:20:45;;;;;;;;;;;;;;;;;;5054659;28;19921;-62
2023/06/11 13:23:11;;;;;;;;;;;;;;;;;;5062662;28;19919;-62
2023/06/11 13:25:37;;;;;;;;;;;;;;;;;;5068626;28;19959;-62
2023/06/11 13:28:02;;;;;;;;;;;;;;;;;;5067828;28;19951;-62
2023/06/11 13:30:28;;;;;;;;;;;;;;;;;;5062625;28;19940;-62
2023/06/11 13:32:55;;;;;;;;;;;;;;;;;;5066882;28;20365;-62
2023/06/11 13:35:21;;;;;;;;;;;;;;;;;;5066248;28;20007;-62
2023/06/11 13:37:46;;;;;;;;;;;;;;;;;;5060453;28;20004;-61
2023/06/11 13:40:12;;;;;;;;;;;;;;;;;;5061590;28;20305;-62
2023/06/11 13:42:38;;;;;;;;;;;;;;;;;;5071000;28;20400;-61
2023/06/11 13:45:04;;;;;;;;;;;;;;;;;;5058857;28;19948;-62
2023/06/11 13:47:30;;;;;;;;;;;;;;;;;;5062121;28;20392;-63
2023/06/11 13:49:56;;;;;;;;;;;;;;;;;;5056565;28;19920;-62
2023/06/11 13:52:24;;;;;;;;;;;;;;;;;;5062475;28;19974;-63
2023/06/11 13:54:49;;;;;;;;;;;;;;;;;;5058942;28;19971;-63
2023/06/11 13:57:16;;;;;;;;;;;;;;;;;;5065017;28;20333;-61
2023/06/11 13:59:41;;;;;;;;;;;;;;;;;;5063428;28;19943;-62
2023/06/11 14:02:07;;;;;;;;;;;;;;;;;;5064554;28;19951;-62
2023/06/11 14:04:33;;;;;;;;;;;;;;;;;;5069278;28;19923;-61
2023/06/11 14:07:00;;;;;;;;;;;;;;;;;;5066629;28;20357;-62
2023/06/11 14:09:26;;;;;;;;;;;;;;;;;;5061113;28;19916;-62
2023/06/11 14:11:52;;;;;;;;;;;;;;;;;;5058597;28;20016;-62
2023/06/11 14:14:18;;;;;;;;;;;;;;;;;;5065420;28;19956;-61
2023/06/11 14:16:44;;;;;;;;;;;;;;;;;;5063326;28;19928;-61
2023/06/11 14:19:10;;;;;;;;;;;;;;;;;;5069384;28;19986;-62
2023/06/11 14:21:36;;;;;;;;;;;;;;;;;;5066534;28;19912;-62
2023/06/11 14:24:02;;;;;;;;;;;;;;;;;;5065618;28;19920;-61
2023/06/11 14:26:28;;;;;;;;;;;;;;;;;;5067904;28;20003;-62
2023/06/11 14:28:54;;;;;;;;;;;;;;;;;;5073923;28;19917;-61
2023/06/11 14:31:20;;;;;;;;;;;;;;;;;;5068434;28;20339;-61
2023/06/11 14:33:47;;;;;;;;;;;;;;;;;;5062666;28;19916;-62
2023/06/11 14:36:13;;;;;;;;;;;;;;;;;;5067764;28;19924;-61
2023/06/11 14:38:39;;;;;;;;;;;;;;;;;;5069816;28;19958;-61
2023/06/11 14:41:04;;;;;;;;;;;;;;;;;;5065746;28;19916;-61
2023/06/11 14:43:30;;;;;;;;;;;;;;;;;;5064125;28;19966;-62
2023/06/11 14:45:56;;;;;;;;;;;;;;;;;;5069948;28;19971;-62
2023/06/11 14:48:22;;;;;;;;;;;;;;;;;;5058920;28;19958;-61
2023/06/11 14:50:48;;;;;;;;;;;;;;;;;;5057258;28;19913;-62
2023/06/11 14:53:14;;;;;;;;;;;;;;;;;;5066323;28;19913;-61
2023/06/11 14:55:40;;;;;;;;;;;;;;;;;;5059660;28;19959;-62
2023/06/11 14:58:06;;;;;;;;;;;;;;;;;;5062479;28;19951;-61
2023/06/11 15:00:32;;;;;;;;;;;;;;;;;;5061761;28;20388;-62
2023/06/11 15:02:58;;;;;;;;;;;;;;;;;;5061034;28;19930;-61
2023/06/11 15:05:23;;;;;;;;;;;;;;;;;;5061751;28;20292;-61
2023/06/11 15:07:49;;;;;;;;;;;;;;;;;;5063456;28;20062;-61
2023/06/11 15:10:15;;;;;;;;;;;;;;;;;;5066129;28;19948;-61
2023/06/11 15:12:41;;;;;;;;;;;;;;;;;;5060624;28;20386;-61
2023/06/11 15:15:07;;;;;;;;;;;;;;;;;;5065735;28;19916;-61
2023/06/11 15:17:35;;;;;;;;;;;;;;;;;;5065729;28;19962;-61
2023/06/11 15:20:01;;;;;;;;;;;;;;;;;;5068023;28;19924;-60
2023/06/11 15:22:27;;;;;;;;;;;;;;;;;;5069277;28;19952;-61
2023/06/11 15:24:53;;;;;;;;;;;;;;;;;;5063446;28;19975;-61
2023/06/11 15:27:19;;;;;;;;;;;;;;;;;;5067783;28;19956;-61
2023/06/11 15:29:45;;;;;;;;;;;;;;;;;;5064676;28;19963;-61
2023/06/11 15:32:11;;;;;;;;;;;;;;;;;;5056740;28;20406;-61
2023/06/11 15:34:37;;;;;;;;;;;;;;;;;;5064052;28;19995;-61
2023/06/11 15:37:03;;;;;;;;;;;;;;;;;;5058049;28;19924;-61
2023/06/11 15:39:29;;;;;;;;;;;;;;;;;;5055810;28;19963;-62
2023/06/11 15:41:55;;;;;;;;;;;;;;;;;;5069805;28;19951;-62
2023/06/11 15:44:21;;;;;;;;;;;;;;;;;;5062176;28;20009;-62
2023/06/11 15:46:46;;;;;;;;;;;;;;;;;;5064242;28;19955;-62
2023/06/11 15:49:12;;;;;;;;;;;;;;;;;;5059025;28;19930;-62
2023/06/11 15:51:38;;;;;;;;;;;;;;;;;;5067474;28;20646;-62
2023/06/11 15:54:05;;;;;;;;;;;;;;;;;;5046825;28;19912;-61
2023/06/11 15:56:30;;;;;;;;;;;;;;;;;;5067691;28;19917;-62
2023/06/11 15:58:56;;;;;;;;;;;;;;;;;;5070509;28;20007;-61
2023/06/11 16:01:22;;;;;;;;;;;;;;;;;;5073349;28;20364;-62
2023/06/11 16:03:48;;;;;;;;;;;;;;;;;;5074661;28;19959;-61
2023/06/11 16:06:14;;;;;;;;;;;;;;;;;;5072931;28;20007;-62
2023/06/11 16:08:40;;;;;;;;;;;;;;;;;;5071801;28;20226;-62
2023/06/11 16:11:06;;;;;;;;;;;;;;;;;;5068938;28;19959;-62
2023/06/11 16:13:32;;;;;;;;;;;;;;;;;;5068605;28;20384;-62
2023/06/11 16:15:58;;;;;;;;;;;;;;;;;;5062452;28;20038;-62
2023/06/11 16:18:24;;;;;;;;;;;;;;;;;;5068989;28;20411;-62
2023/06/11 16:20:50;;;;;;;;;;;;;;;;;;5057314;28;19973;-61
2023/06/11 16:23:19;;;;;;;;;;;;;;;;;;5065366;28;19949;-62
2023/06/11 16:25:46;;;;;;;;;;;;;;;;;;5062063;28;19961;-61
2023/06/11 16:28:12;;;;;;;;;;;;;;;;;;5059661;28;20269;-61
2023/06/11 16:30:38;;;;;;;;;;;;;;;;;;5072364;28;20248;-62
2023/06/11 16:33:04;;;;;;;;;;;;;;;;;;5068297;28;20039;-62
2023/06/11 16:35:30;;;;;;;;;;;;;;;;;;5067104;28;19912;-62
2023/06/11 16:37:55;;;;;;;;;;;;;;;;;;5068910;28;19959;-62